createdAt,value
2016-09-19T00:02:04.108Z,48.7
2016-09-19T00:07:04.069Z,48.7
2016-09-19T00:12:03.811Z,48.7
2016-09-19T00:17:04.292Z,48.6
2016-09-19T00:22:03.838Z,48.6
2016-09-19T00:27:04.289Z,48.8
2016-09-19T00:32:03.877Z,48.5
2016-09-19T00:37:04.286Z,48.5
2016-09-19T00:42:03.690Z,48.6
2016-09-19T00:47:04.239Z,48.5
2016-09-19T00:52:03.773Z,48.7
2016-09-19T00:57:04.084Z,48.7
2016-09-19T01:02:03.720Z,48.6
2016-09-19T01:07:03.993Z,48.6
2016-09-19T01:12:03.618Z,48.6
2016-09-19T01:17:04.317Z,48.5
2016-09-19T01:22:03.752Z,48.5
2016-09-19T01:27:04.207Z,48.4
2016-09-19T01:32:03.968Z,48.5
2016-09-19T01:37:03.565Z,48.5
2016-09-19T01:42:04.146Z,48.6
2016-09-19T01:47:03.806Z,48.6
2016-09-19T01:52:04.290Z,48.6
2016-09-19T01:57:04.012Z,48.6
2016-09-19T02:02:03.602Z,48.7
2016-09-19T02:07:04.205Z,48.6
2016-09-19T02:12:04.006Z,48.7
2016-09-19T02:17:04.429Z,48.7
2016-09-19T02:22:04.163Z,48.8
2016-09-19T02:27:03.674Z,48.8
2016-09-19T02:32:04.160Z,48.7
2016-09-19T02:37:03.817Z,48.7
2016-09-19T02:42:04.008Z,48.7
2016-09-19T02:47:04.137Z,48.8
2016-09-19T02:52:04.230Z,48.9
2016-09-19T02:57:04.302Z,48.9
2016-09-19T03:02:04.189Z,48.7
2016-09-19T03:07:03.810Z,48.9
2016-09-19T03:12:03.976Z,48.8
2016-09-19T03:17:04.007Z,48.6
2016-09-19T03:22:04.169Z,48.6
2016-09-19T03:27:04.253Z,48.6
2016-09-19T03:32:04.468Z,48.6
2016-09-19T03:37:04.355Z,48.5
2016-09-19T03:42:03.530Z,48.6
2016-09-19T03:47:03.548Z,48.6
2016-09-19T03:52:03.791Z,48.9
2016-09-19T03:57:03.908Z,48.8
2016-09-19T04:02:03.849Z,48.9
2016-09-19T04:07:04.141Z,48.7
2016-09-19T04:12:04.257Z,48.7
2016-09-19T04:17:04.291Z,48.7
2016-09-19T04:22:03.670Z,48.6
2016-09-19T04:27:03.700Z,48.6
2016-09-19T04:32:04.056Z,48.6
2016-09-19T04:37:03.939Z,48.5
2016-09-19T04:42:03.974Z,48.4
2016-09-19T04:47:20.258Z,48.4
2016-09-19T04:52:03.579Z,48.6
2016-09-19T04:57:03.740Z,48.4
2016-09-19T05:02:32.120Z,48.4
2016-09-19T05:07:04.207Z,48.4
2016-09-19T05:12:03.569Z,48.5
2016-09-19T05:17:34.790Z,48.6
2016-09-19T05:22:03.832Z,48.6
2016-09-19T05:27:04.413Z,48.4
2016-09-19T05:32:37.470Z,48.4
2016-09-19T05:37:03.531Z,48.4
2016-09-19T05:42:03.547Z,48.4
2016-09-19T05:47:32.590Z,48.4
2016-09-19T05:52:03.860Z,48.4
2016-09-19T05:57:04.009Z,48.4
2016-09-19T06:02:38.416Z,48.4
2016-09-19T06:07:04.011Z,48.4
2016-09-19T06:12:03.611Z,48.3
2016-09-19T06:17:35.726Z,48.3
2016-09-19T06:22:04.138Z,48.2
2016-09-19T06:27:03.718Z,48.2
2016-09-19T06:32:31.345Z,48.0
2016-09-19T06:37:03.558Z,47.9
2016-09-19T06:42:03.592Z,48.1
2016-09-19T06:47:34.666Z,48.1
2016-09-19T06:52:03.785Z,47.8
2016-09-19T06:57:03.798Z,47.8
2016-09-19T07:02:36.595Z,47.6
2016-09-19T07:07:03.506Z,47.7
2016-09-19T07:12:03.769Z,47.7
2016-09-19T07:17:37.266Z,47.7
2016-09-19T07:22:04.398Z,47.7
2016-09-19T07:27:04.246Z,47.7
2016-09-19T07:32:31.564Z,47.8
2016-09-19T07:37:03.496Z,47.9
2016-09-19T07:42:04.040Z,47.8
2016-09-19T07:47:35.356Z,47.9
2016-09-19T07:52:03.831Z,47.9
2016-09-19T07:57:03.873Z,48.1
2016-09-19T08:02:36.918Z,48.0
2016-09-19T08:07:04.072Z,47.9
2016-09-19T08:12:04.313Z,47.7
2016-09-19T08:17:36.968Z,47.3
2016-09-19T08:22:04.223Z,47.3
2016-09-19T08:27:03.953Z,46.9
2016-09-19T08:32:35.022Z,46.7
2016-09-19T08:37:03.749Z,46.8
2016-09-19T08:42:04.176Z,47.0
2016-09-19T08:47:37.272Z,47.5
2016-09-19T08:52:03.900Z,47.4
2016-09-19T08:57:03.765Z,47.4
2016-09-19T09:02:46.262Z,47.3
2016-09-19T09:07:04.057Z,47.3
2016-09-19T09:12:04.003Z,46.6
2016-09-19T09:17:36.774Z,46.6
2016-09-19T09:22:03.631Z,46.3
2016-09-19T09:27:04.088Z,46.3
2016-09-19T09:32:36.818Z,46.3
2016-09-19T09:37:04.243Z,46.2
2016-09-19T09:42:04.126Z,46.2
2016-09-19T09:47:35.334Z,46.4
2016-09-19T09:52:03.645Z,46.4
2016-09-19T09:57:04.059Z,46.0
2016-09-19T10:02:31.931Z,45.9
2016-09-19T10:07:03.871Z,46.2
2016-09-19T10:12:03.731Z,46.2
2016-09-19T10:17:32.402Z,46.2
2016-09-19T10:22:04.285Z,45.9
2016-09-19T10:27:03.866Z,45.7
2016-09-19T10:32:38.738Z,46.6
2016-09-19T10:37:03.755Z,46.6
2016-09-19T10:42:03.601Z,46.5
2016-09-19T10:47:35.066Z,46.2
2016-09-19T10:52:03.659Z,46.3
2016-09-19T10:57:03.598Z,45.6
2016-09-19T11:02:41.449Z,45.5
2016-09-19T11:07:03.939Z,45.4
2016-09-19T11:12:04.121Z,45.1
2016-09-19T11:17:38.149Z,45.4
2016-09-19T11:22:03.559Z,45.5
2016-09-19T11:27:03.854Z,44.9
2016-09-19T11:32:37.789Z,44.9
2016-09-19T11:37:03.535Z,45.9
2016-09-19T11:42:04.109Z,46.3
2016-09-19T11:47:34.771Z,46.3
2016-09-19T11:52:03.601Z,45.9
2016-09-19T11:57:03.788Z,46.0
2016-09-19T12:02:36.060Z,46.0
2016-09-19T12:07:03.672Z,45.8
2016-09-19T12:12:03.429Z,45.8
2016-09-19T12:17:31.986Z,45.5
2016-09-19T12:22:04.155Z,44.8
2016-09-19T12:27:03.465Z,44.4
2016-09-19T12:32:36.636Z,46.2
2016-09-19T12:37:03.509Z,46.7
2016-09-19T12:42:03.411Z,46.7
2016-09-19T12:47:36.762Z,46.9
2016-09-19T12:52:04.135Z,46.8
2016-09-19T12:57:03.631Z,46.9
2016-09-19T13:02:32.187Z,46.7
2016-09-19T13:07:03.520Z,46.3
2016-09-19T13:12:03.407Z,46.4
2016-09-19T13:17:36.956Z,46.3
2016-09-19T13:22:03.896Z,46.3
2016-09-19T13:27:04.137Z,46.3
2016-09-19T13:32:36.872Z,46.3
2016-09-19T13:37:04.220Z,46.2
2016-09-19T13:42:03.617Z,46.4
2016-09-19T13:47:37.567Z,46.3
2016-09-19T13:52:04.144Z,46.5
2016-09-19T13:57:03.470Z,47.0
2016-09-19T20:02:04.216Z,47.9
2016-09-19T20:07:03.672Z,48.0
2016-09-19T20:12:03.633Z,48.0
2016-09-19T20:17:03.979Z,48.1
2016-09-19T20:22:03.708Z,48.1
2016-09-19T20:27:03.952Z,48.2
2016-09-19T20:32:04.330Z,48.1
2016-09-19T20:37:03.809Z,48.1
2016-09-19T20:42:03.985Z,48.2
2016-09-19T20:47:04.427Z,48.2
2016-09-19T20:52:03.552Z,48.3
2016-09-19T20:57:03.431Z,48.2
2016-09-19T21:02:03.772Z,48.2
2016-09-19T21:07:03.946Z,48.2
2016-09-19T21:12:03.535Z,48.2
2016-09-19T21:17:04.124Z,48.3
2016-09-19T21:22:03.429Z,48.2
2016-09-19T21:27:03.865Z,48.4
2016-09-19T21:32:04.055Z,48.2
2016-09-19T21:37:03.918Z,48.2
2016-09-19T21:42:03.557Z,48.2
2016-09-19T21:47:04.277Z,48.2
2016-09-19T21:52:03.884Z,48.2
2016-09-19T21:57:04.185Z,48.0
2016-09-19T22:02:03.835Z,48.1
2016-09-19T22:07:04.147Z,48.0
2016-09-19T22:12:04.360Z,48.2
2016-09-19T22:22:04.462Z,47.9
2016-09-19T22:27:03.664Z,47.8
2016-09-19T22:32:04.117Z,47.8
2016-09-19T22:37:04.083Z,47.8
2016-09-19T22:42:03.856Z,47.6
2016-09-19T22:47:03.378Z,47.5
2016-09-19T22:52:03.756Z,47.6
2016-09-19T22:57:03.883Z,47.7
2016-09-19T23:02:04.142Z,47.5
2016-09-19T23:07:03.720Z,47.5
2016-09-19T23:12:03.968Z,47.6
2016-09-19T23:17:04.181Z,47.5
2016-09-19T23:22:03.516Z,47.5
2016-09-19T23:27:03.820Z,47.7
2016-09-19T23:32:04.070Z,47.9
2016-09-19T23:37:03.923Z,47.8
2016-09-19T23:42:03.430Z,47.8
2016-09-19T23:47:03.778Z,47.6
2016-09-19T23:52:04.245Z,47.4
2016-09-19T23:57:03.597Z,47.4
